Terminal Aerodrome Forecast
Issued by NWS

Current Version | Previous Version | Text Only | Print | Product List | Glossary On
Versions: 1 2 3 4 5 6 7 8 9 10 11 12 13 14 15 16 17 18 19 20
000
FTUS41 KBGM 091720
TAFELM
TAF
KELM 091720Z 0918/1018 30012G22KT P6SM BKN045
     FM092200 29005KT P6SM BKN045
     FM101200 25004KT P6SM BKN025=

USA.gov is the U.S. government's official web portal to all federal, state and local government web resources and services.